sensor_id;sensor_type;location;lat;lon;timestamp;P1;durP1;ratioP1;P2;durP2;ratioP2
61677;SDS011;47575;52.054;4.334;2022-08-07T00:00:49;7.47;;;3.60;;
61677;SDS011;47575;52.054;4.334;2022-08-07T00:03:16;7.53;;;3.80;;
61677;SDS011;47575;52.054;4.334;2022-08-07T00:05:43;7.60;;;4.00;;
61677;SDS011;47575;52.054;4.334;2022-08-07T00:08:12;6.63;;;3.40;;
61677;SDS011;47575;52.054;4.334;2022-08-07T00:10:39;8.10;;;3.43;;
61677;SDS011;47575;52.054;4.334;2022-08-07T00:13:07;5.70;;;3.20;;
61677;SDS011;47575;52.054;4.334;2022-08-07T00:15:34;5.47;;;3.10;;
61677;SDS011;47575;52.054;4.334;2022-08-07T00:18:02;6.10;;;3.20;;
61677;SDS011;47575;52.054;4.334;2022-08-07T00:20:30;6.67;;;3.40;;
61677;SDS011;47575;52.054;4.334;2022-08-07T00:22:57;6.57;;;3.50;;
61677;SDS011;47575;52.054;4.334;2022-08-07T00:25:25;7.33;;;3.63;;
61677;SDS011;47575;52.054;4.334;2022-08-07T00:27:53;7.47;;;3.50;;
61677;SDS011;47575;52.054;4.334;2022-08-07T00:30:20;6.27;;;3.60;;
61677;SDS011;47575;52.054;4.334;2022-08-07T00:32:48;6.43;;;3.40;;
61677;SDS011;47575;52.054;4.334;2022-08-07T00:35:16;7.03;;;3.60;;
61677;SDS011;47575;52.054;4.334;2022-08-07T00:37:44;6.63;;;3.80;;
61677;SDS011;47575;52.054;4.334;2022-08-07T00:40:12;6.67;;;3.60;;
61677;SDS011;47575;52.054;4.334;2022-08-07T00:42:42;7.47;;;3.97;;
61677;SDS011;47575;52.054;4.334;2022-08-07T00:45:10;8.07;;;4.00;;
61677;SDS011;47575;52.054;4.334;2022-08-07T00:47:37;7.80;;;4.13;;
61677;SDS011;47575;52.054;4.334;2022-08-07T00:50:05;7.10;;;3.70;;
61677;SDS011;47575;52.054;4.334;2022-08-07T00:52:33;6.23;;;3.63;;
61677;SDS011;47575;52.054;4.334;2022-08-07T00:55:01;6.00;;;3.80;;
61677;SDS011;47575;52.054;4.334;2022-08-07T00:57:28;9.30;;;4.00;;
61677;SDS011;47575;52.054;4.334;2022-08-07T00:59:57;7.07;;;3.90;;
61677;SDS011;47575;52.054;4.334;2022-08-07T01:02:25;7.40;;;3.80;;
61677;SDS011;47575;52.054;4.334;2022-08-07T01:04:52;6.20;;;3.50;;
61677;SDS011;47575;52.054;4.334;2022-08-07T01:07:20;6.77;;;3.70;;
61677;SDS011;47575;52.054;4.334;2022-08-07T01:09:47;6.33;;;3.77;;
61677;SDS011;47575;52.054;4.334;2022-08-07T01:12:15;6.70;;;3.77;;
61677;SDS011;47575;52.054;4.334;2022-08-07T01:14:43;7.23;;;3.50;;
61677;SDS011;47575;52.054;4.334;2022-08-07T01:17:13;5.73;;;3.27;;
61677;SDS011;47575;52.054;4.334;2022-08-07T01:19:40;6.23;;;3.43;;
61677;SDS011;47575;52.054;4.334;2022-08-07T01:22:11;6.57;;;3.57;;
61677;SDS011;47575;52.054;4.334;2022-08-07T01:24:39;6.63;;;3.47;;
61677;SDS011;47575;52.054;4.334;2022-08-07T01:27:07;8.20;;;3.90;;
61677;SDS011;47575;52.054;4.334;2022-08-07T01:29:35;6.67;;;3.67;;
61677;SDS011;47575;52.054;4.334;2022-08-07T01:32:02;6.63;;;3.53;;
61677;SDS011;47575;52.054;4.334;2022-08-07T01:34:30;7.37;;;3.50;;
61677;SDS011;47575;52.054;4.334;2022-08-07T01:37:03;6.60;;;2.90;;
61677;SDS011;47575;52.054;4.334;2022-08-07T01:39:32;6.63;;;3.50;;
61677;SDS011;47575;52.054;4.334;2022-08-07T01:42:04;5.40;;;3.10;;
61677;SDS011;47575;52.054;4.334;2022-08-07T01:44:33;5.37;;;3.10;;
61677;SDS011;47575;52.054;4.334;2022-08-07T01:47:01;7.70;;;3.30;;
61677;SDS011;47575;52.054;4.334;2022-08-07T01:49:30;6.37;;;3.47;;
61677;SDS011;47575;52.054;4.334;2022-08-07T01:51:58;5.57;;;3.17;;
61677;SDS011;47575;52.054;4.334;2022-08-07T01:54:28;6.43;;;3.40;;
61677;SDS011;47575;52.054;4.334;2022-08-07T01:57:02;6.63;;;3.42;;
61677;SDS011;47575;52.054;4.334;2022-08-07T01:59:34;6.80;;;3.70;;
61677;SDS011;47575;52.054;4.334;2022-08-07T02:02:07;5.93;;;3.50;;
61677;SDS011;47575;52.054;4.334;2022-08-07T02:04:38;6.27;;;3.63;;
61677;SDS011;47575;52.054;4.334;2022-08-07T02:07:10;9.43;;;3.37;;
61677;SDS011;47575;52.054;4.334;2022-08-07T02:09:40;6.63;;;3.67;;
61677;SDS011;47575;52.054;4.334;2022-08-07T02:12:13;6.43;;;3.42;;
61677;SDS011;47575;52.054;4.334;2022-08-07T02:14:51;6.20;;;3.63;;
61677;SDS011;47575;52.054;4.334;2022-08-07T02:17:33;6.23;;;3.67;;
61677;SDS011;47575;52.054;4.334;2022-08-07T02:20:02;6.10;;;3.50;;
61677;SDS011;47575;52.054;4.334;2022-08-07T02:22:31;7.73;;;3.40;;
61677;SDS011;47575;52.054;4.334;2022-08-07T02:24:59;8.27;;;4.07;;
61677;SDS011;47575;52.054;4.334;2022-08-07T02:27:29;6.60;;;4.07;;
61677;SDS011;47575;52.054;4.334;2022-08-07T02:29:58;6.33;;;3.70;;
61677;SDS011;47575;52.054;4.334;2022-08-07T02:32:32;6.03;;;3.70;;
61677;SDS011;47575;52.054;4.334;2022-08-07T02:35:02;7.87;;;3.90;;
61677;SDS011;47575;52.054;4.334;2022-08-07T02:37:31;6.93;;;3.97;;
61677;SDS011;47575;52.054;4.334;2022-08-07T02:40:03;5.97;;;3.60;;
61677;SDS011;47575;52.054;4.334;2022-08-07T02:42:34;6.47;;;3.53;;
61677;SDS011;47575;52.054;4.334;2022-08-07T02:45:02;6.53;;;3.73;;
61677;SDS011;47575;52.054;4.334;2022-08-07T02:47:32;5.80;;;3.20;;
61677;SDS011;47575;52.054;4.334;2022-08-07T02:50:07;6.50;;;3.67;;
61677;SDS011;47575;52.054;4.334;2022-08-07T02:52:37;5.63;;;3.40;;
61677;SDS011;47575;52.054;4.334;2022-08-07T02:55:09;7.47;;;3.47;;
61677;SDS011;47575;52.054;4.334;2022-08-07T03:00:11;6.83;;;4.03;;
61677;SDS011;47575;52.054;4.334;2022-08-07T03:02:41;7.20;;;3.70;;
61677;SDS011;47575;52.054;4.334;2022-08-07T03:07:41;6.13;;;3.73;;
61677;SDS011;47575;52.054;4.334;2022-08-07T03:10:09;6.57;;;3.80;;
61677;SDS011;47575;52.054;4.334;2022-08-07T03:12:37;7.93;;;3.80;;
61677;SDS011;47575;52.054;4.334;2022-08-07T03:15:12;7.07;;;3.80;;
61677;SDS011;47575;52.054;4.334;2022-08-07T03:17:40;6.90;;;4.03;;
61677;SDS011;47575;52.054;4.334;2022-08-07T03:20:10;7.43;;;3.70;;
61677;SDS011;47575;52.054;4.334;2022-08-07T03:22:39;6.10;;;3.60;;
61677;SDS011;47575;52.054;4.334;2022-08-07T03:25:08;7.07;;;3.97;;
61677;SDS011;47575;52.054;4.334;2022-08-07T03:27:45;7.90;;;4.17;;
61677;SDS011;47575;52.054;4.334;2022-08-07T03:30:16;7.67;;;4.00;;
61677;SDS011;47575;52.054;4.334;2022-08-07T03:32:45;6.80;;;4.03;;
61677;SDS011;47575;52.054;4.334;2022-08-07T03:35:23;8.23;;;4.10;;
61677;SDS011;47575;52.054;4.334;2022-08-07T03:37:52;6.23;;;4.00;;
61677;SDS011;47575;52.054;4.334;2022-08-07T03:40:26;7.97;;;3.60;;
61677;SDS011;47575;52.054;4.334;2022-08-07T03:42:55;5.70;;;3.63;;
61677;SDS011;47575;52.054;4.334;2022-08-07T03:45:25;6.73;;;3.90;;
61677;SDS011;47575;52.054;4.334;2022-08-07T03:47:59;6.80;;;3.93;;
61677;SDS011;47575;52.054;4.334;2022-08-07T03:50:27;6.90;;;4.13;;
61677;SDS011;47575;52.054;4.334;2022-08-07T03:52:56;7.97;;;3.80;;
61677;SDS011;47575;52.054;4.334;2022-08-07T03:55:26;8.27;;;3.70;;
61677;SDS011;47575;52.054;4.334;2022-08-07T03:57:55;7.57;;;3.70;;
61677;SDS011;47575;52.054;4.334;2022-08-07T04:00:28;6.77;;;3.70;;
61677;SDS011;47575;52.054;4.334;2022-08-07T04:02:57;7.00;;;3.83;;
61677;SDS011;47575;52.054;4.334;2022-08-07T04:07:57;7.47;;;3.87;;
61677;SDS011;47575;52.054;4.334;2022-08-07T04:10:25;6.87;;;3.80;;
61677;SDS011;47575;52.054;4.334;2022-08-07T04:12:53;7.83;;;3.97;;
61677;SDS011;47575;52.054;4.334;2022-08-07T04:15:22;9.77;;;3.90;;
61677;SDS011;47575;52.054;4.334;2022-08-07T04:17:53;6.93;;;3.90;;
61677;SDS011;47575;52.054;4.334;2022-08-07T04:20:21;7.30;;;3.90;;
61677;SDS011;47575;52.054;4.334;2022-08-07T04:22:49;7.13;;;3.67;;
61677;SDS011;47575;52.054;4.334;2022-08-07T04:25:18;8.37;;;4.50;;
61677;SDS011;47575;52.054;4.334;2022-08-07T04:27:47;7.17;;;4.10;;
61677;SDS011;47575;52.054;4.334;2022-08-07T04:30:16;8.37;;;3.73;;
61677;SDS011;47575;52.054;4.334;2022-08-07T04:32:53;7.13;;;4.10;;
61677;SDS011;47575;52.054;4.334;2022-08-07T04:35:22;7.37;;;4.37;;
61677;SDS011;47575;52.054;4.334;2022-08-07T04:37:51;9.17;;;3.97;;
61677;SDS011;47575;52.054;4.334;2022-08-07T04:40:19;7.20;;;4.30;;
61677;SDS011;47575;52.054;4.334;2022-08-07T04:42:47;8.97;;;4.03;;
61677;SDS011;47575;52.054;4.334;2022-08-07T04:45:16;9.50;;;4.27;;
61677;SDS011;47575;52.054;4.334;2022-08-07T04:47:47;6.57;;;3.60;;
61677;SDS011;47575;52.054;4.334;2022-08-07T04:50:24;6.50;;;3.90;;
61677;SDS011;47575;52.054;4.334;2022-08-07T04:53:09;6.53;;;3.97;;
61677;SDS011;47575;52.054;4.334;2022-08-07T04:55:42;7.53;;;4.27;;
61677;SDS011;47575;52.054;4.334;2022-08-07T04:58:16;7.47;;;4.27;;
61677;SDS011;47575;52.054;4.334;2022-08-07T05:00:49;6.63;;;4.10;;
61677;SDS011;47575;52.054;4.334;2022-08-07T05:03:22;7.40;;;4.07;;
61677;SDS011;47575;52.054;4.334;2022-08-07T05:05:57;8.93;;;4.90;;
61677;SDS011;47575;52.054;4.334;2022-08-07T05:08:33;8.10;;;5.00;;
61677;SDS011;47575;52.054;4.334;2022-08-07T05:11:08;8.23;;;4.23;;
61677;SDS011;47575;52.054;4.334;2022-08-07T05:13:42;7.70;;;4.40;;
61677;SDS011;47575;52.054;4.334;2022-08-07T05:16:15;7.03;;;4.10;;
61677;SDS011;47575;52.054;4.334;2022-08-07T05:18:46;7.33;;;4.20;;
61677;SDS011;47575;52.054;4.334;2022-08-07T05:21:21;7.57;;;4.40;;
61677;SDS011;47575;52.054;4.334;2022-08-07T05:26:21;8.20;;;4.27;;
61677;SDS011;47575;52.054;4.334;2022-08-07T05:28:59;8.00;;;4.10;;
61677;SDS011;47575;52.054;4.334;2022-08-07T05:31:30;8.03;;;4.47;;
61677;SDS011;47575;52.054;4.334;2022-08-07T05:34:00;6.93;;;4.00;;
61677;SDS011;47575;52.054;4.334;2022-08-07T05:36:30;7.53;;;4.13;;
61677;SDS011;47575;52.054;4.334;2022-08-07T05:38:59;7.03;;;3.75;;
61677;SDS011;47575;52.054;4.334;2022-08-07T05:41:28;7.20;;;3.80;;
61677;SDS011;47575;52.054;4.334;2022-08-07T05:43:56;6.07;;;3.45;;
61677;SDS011;47575;52.054;4.334;2022-08-07T05:46:24;5.72;;;2.97;;
61677;SDS011;47575;52.054;4.334;2022-08-07T05:48:52;5.43;;;2.88;;
61677;SDS011;47575;52.054;4.334;2022-08-07T05:51:20;5.82;;;3.17;;
61677;SDS011;47575;52.054;4.334;2022-08-07T05:53:49;6.43;;;3.30;;
61677;SDS011;47575;52.054;4.334;2022-08-07T05:56:18;4.82;;;2.58;;
61677;SDS011;47575;52.054;4.334;2022-08-07T06:01:17;6.50;;;3.33;;
61677;SDS011;47575;52.054;4.334;2022-08-07T06:03:48;6.35;;;3.83;;
61677;SDS011;47575;52.054;4.334;2022-08-07T06:06:19;6.17;;;3.30;;
61677;SDS011;47575;52.054;4.334;2022-08-07T06:08:51;6.30;;;3.58;;
61677;SDS011;47575;52.054;4.334;2022-08-07T06:11:21;7.03;;;3.97;;
61677;SDS011;47575;52.054;4.334;2022-08-07T06:13:49;5.63;;;3.35;;
61677;SDS011;47575;52.054;4.334;2022-08-07T06:16:17;8.45;;;4.03;;
61677;SDS011;47575;52.054;4.334;2022-08-07T06:18:48;6.60;;;3.60;;
61677;SDS011;47575;52.054;4.334;2022-08-07T06:21:16;8.02;;;4.32;;
61677;SDS011;47575;52.054;4.334;2022-08-07T06:23:45;7.28;;;4.60;;
61677;SDS011;47575;52.054;4.334;2022-08-07T06:26:14;7.90;;;4.40;;
61677;SDS011;47575;52.054;4.334;2022-08-07T06:28:49;7.93;;;4.30;;
61677;SDS011;47575;52.054;4.334;2022-08-07T06:31:17;8.18;;;4.30;;
61677;SDS011;47575;52.054;4.334;2022-08-07T06:33:45;7.18;;;4.28;;
61677;SDS011;47575;52.054;4.334;2022-08-07T06:36:12;7.78;;;4.32;;
61677;SDS011;47575;52.054;4.334;2022-08-07T06:38:48;7.78;;;5.00;;
61677;SDS011;47575;52.054;4.334;2022-08-07T06:41:17;7.55;;;4.35;;
61677;SDS011;47575;52.054;4.334;2022-08-07T06:43:49;7.88;;;4.75;;
61677;SDS011;47575;52.054;4.334;2022-08-07T06:46:19;8.55;;;4.35;;
61677;SDS011;47575;52.054;4.334;2022-08-07T06:48:47;7.55;;;3.83;;
61677;SDS011;47575;52.054;4.334;2022-08-07T06:51:19;7.67;;;3.20;;
61677;SDS011;47575;52.054;4.334;2022-08-07T06:53:50;6.10;;;2.47;;
61677;SDS011;47575;52.054;4.334;2022-08-07T06:56:20;4.72;;;2.30;;
61677;SDS011;47575;52.054;4.334;2022-08-07T06:59:04;4.30;;;2.28;;
61677;SDS011;47575;52.054;4.334;2022-08-07T07:01:34;5.28;;;3.00;;
61677;SDS011;47575;52.054;4.334;2022-08-07T07:04:04;6.43;;;3.10;;
61677;SDS011;47575;52.054;4.334;2022-08-07T07:06:32;6.00;;;3.08;;
61677;SDS011;47575;52.054;4.334;2022-08-07T07:09:19;6.38;;;2.40;;
61677;SDS011;47575;52.054;4.334;2022-08-07T07:12:18;6.25;;;2.13;;
61677;SDS011;47575;52.054;4.334;2022-08-07T07:14:54;7.13;;;2.10;;
61677;SDS011;47575;52.054;4.334;2022-08-07T07:17:27;4.93;;;2.33;;
61677;SDS011;47575;52.054;4.334;2022-08-07T07:20:02;6.32;;;2.13;;
61677;SDS011;47575;52.054;4.334;2022-08-07T07:22:32;4.75;;;2.10;;
61677;SDS011;47575;52.054;4.334;2022-08-07T07:24:59;4.70;;;2.22;;
61677;SDS011;47575;52.054;4.334;2022-08-07T07:27:32;5.40;;;2.30;;
61677;SDS011;47575;52.054;4.334;2022-08-07T07:30:04;4.53;;;2.00;;
61677;SDS011;47575;52.054;4.334;2022-08-07T07:32:33;5.50;;;2.20;;
61677;SDS011;47575;52.054;4.334;2022-08-07T07:35:05;4.57;;;1.90;;
61677;SDS011;47575;52.054;4.334;2022-08-07T07:37:36;4.18;;;1.40;;
61677;SDS011;47575;52.054;4.334;2022-08-07T07:40:13;4.57;;;1.77;;
61677;SDS011;47575;52.054;4.334;2022-08-07T07:42:45;5.20;;;1.90;;
61677;SDS011;47575;52.054;4.334;2022-08-07T07:45:16;6.57;;;2.07;;
61677;SDS011;47575;52.054;4.334;2022-08-07T07:47:44;4.30;;;1.83;;
61677;SDS011;47575;52.054;4.334;2022-08-07T07:50:16;4.55;;;1.50;;
61677;SDS011;47575;52.054;4.334;2022-08-07T07:52:44;4.90;;;1.60;;
61677;SDS011;47575;52.054;4.334;2022-08-07T07:55:12;3.42;;;1.35;;
61677;SDS011;47575;52.054;4.334;2022-08-07T07:57:43;5.28;;;1.60;;
61677;SDS011;47575;52.054;4.334;2022-08-07T08:00:14;3.95;;;1.52;;
61677;SDS011;47575;52.054;4.334;2022-08-07T08:02:43;3.88;;;1.50;;
61677;SDS011;47575;52.054;4.334;2022-08-07T08:05:15;3.47;;;1.60;;
61677;SDS011;47575;52.054;4.334;2022-08-07T08:07:44;4.82;;;1.40;;
61677;SDS011;47575;52.054;4.334;2022-08-07T08:10:13;3.28;;;1.40;;
61677;SDS011;47575;52.054;4.334;2022-08-07T08:12:42;5.82;;;1.60;;
61677;SDS011;47575;52.054;4.334;2022-08-07T08:15:12;3.83;;;1.30;;
61677;SDS011;47575;52.054;4.334;2022-08-07T08:17:39;4.13;;;1.50;;
61677;SDS011;47575;52.054;4.334;2022-08-07T08:20:09;3.33;;;1.50;;
61677;SDS011;47575;52.054;4.334;2022-08-07T08:22:37;4.32;;;1.50;;
61677;SDS011;47575;52.054;4.334;2022-08-07T08:25:25;6.28;;;1.80;;
61677;SDS011;47575;52.054;4.334;2022-08-07T08:28:14;3.80;;;1.50;;
61677;SDS011;47575;52.054;4.334;2022-08-07T08:30:47;4.82;;;1.55;;
61677;SDS011;47575;52.054;4.334;2022-08-07T08:35:46;4.47;;;1.75;;
61677;SDS011;47575;52.054;4.334;2022-08-07T08:38:15;3.47;;;1.40;;
61677;SDS011;47575;52.054;4.334;2022-08-07T08:40:47;4.30;;;1.60;;
61677;SDS011;47575;52.054;4.334;2022-08-07T08:43:20;3.75;;;1.40;;
61677;SDS011;47575;52.054;4.334;2022-08-07T08:45:56;6.00;;;1.67;;
61677;SDS011;47575;52.054;4.334;2022-08-07T08:48:31;4.75;;;1.40;;
61677;SDS011;47575;52.054;4.334;2022-08-07T08:51:06;3.70;;;1.50;;
61677;SDS011;47575;52.054;4.334;2022-08-07T08:53:41;4.03;;;1.63;;
61677;SDS011;47575;52.054;4.334;2022-08-07T08:56:14;4.20;;;1.70;;
61677;SDS011;47575;52.054;4.334;2022-08-07T08:58:48;5.60;;;1.80;;
61677;SDS011;47575;52.054;4.334;2022-08-07T09:01:21;3.27;;;1.40;;
61677;SDS011;47575;52.054;4.334;2022-08-07T09:03:54;3.78;;;1.30;;
61677;SDS011;47575;52.054;4.334;2022-08-07T09:06:31;3.65;;;1.48;;
61677;SDS011;47575;52.054;4.334;2022-08-07T09:09:05;3.78;;;1.50;;
61677;SDS011;47575;52.054;4.334;2022-08-07T09:11:44;5.68;;;1.50;;
61677;SDS011;47575;52.054;4.334;2022-08-07T09:14:23;6.20;;;1.67;;
61677;SDS011;47575;52.054;4.334;2022-08-07T09:17:03;3.90;;;1.40;;
61677;SDS011;47575;52.054;4.334;2022-08-07T09:19:45;5.30;;;1.33;;
61677;SDS011;47575;52.054;4.334;2022-08-07T09:22:27;4.82;;;1.65;;
61677;SDS011;47575;52.054;4.334;2022-08-07T09:25:15;6.18;;;1.60;;
61677;SDS011;47575;52.054;4.334;2022-08-07T09:27:50;4.97;;;1.55;;
61677;SDS011;47575;52.054;4.334;2022-08-07T09:30:23;7.32;;;1.50;;
61677;SDS011;47575;52.054;4.334;2022-08-07T09:33:01;3.92;;;1.38;;
61677;SDS011;47575;52.054;4.334;2022-08-07T09:35:37;5.05;;;1.40;;
61677;SDS011;47575;52.054;4.334;2022-08-07T09:38:12;5.35;;;1.50;;
61677;SDS011;47575;52.054;4.334;2022-08-07T09:40:49;5.20;;;1.45;;
61677;SDS011;47575;52.054;4.334;2022-08-07T09:43:29;3.72;;;1.23;;
61677;SDS011;47575;52.054;4.334;2022-08-07T09:46:08;3.15;;;1.20;;
61677;SDS011;47575;52.054;4.334;2022-08-07T09:48:48;6.43;;;1.60;;
61677;SDS011;47575;52.054;4.334;2022-08-07T09:54:07;2.65;;;1.38;;
61677;SDS011;47575;52.054;4.334;2022-08-07T09:56:48;4.38;;;1.40;;
61677;SDS011;47575;52.054;4.334;2022-08-07T09:59:36;4.68;;;1.45;;
61677;SDS011;47575;52.054;4.334;2022-08-07T10:05:28;4.97;;;1.38;;
61677;SDS011;47575;52.054;4.334;2022-08-07T10:08:08;3.17;;;1.10;;
61677;SDS011;47575;52.054;4.334;2022-08-07T10:10:55;3.95;;;1.17;;
61677;SDS011;47575;52.054;4.334;2022-08-07T10:13:35;3.80;;;1.30;;
61677;SDS011;47575;52.054;4.334;2022-08-07T10:16:21;3.38;;;1.08;;
61677;SDS011;47575;52.054;4.334;2022-08-07T10:19:06;3.05;;;1.10;;
61677;SDS011;47575;52.054;4.334;2022-08-07T10:22:01;3.58;;;0.90;;
61677;SDS011;47575;52.054;4.334;2022-08-07T10:24:56;3.50;;;1.23;;
61677;SDS011;47575;52.054;4.334;2022-08-07T10:27:35;2.65;;;1.00;;
61677;SDS011;47575;52.054;4.334;2022-08-07T10:30:12;3.33;;;1.08;;
61677;SDS011;47575;52.054;4.334;2022-08-07T10:32:55;3.33;;;1.10;;
61677;SDS011;47575;52.054;4.334;2022-08-07T10:35:45;3.70;;;1.20;;
61677;SDS011;47575;52.054;4.334;2022-08-07T10:38:31;4.05;;;1.00;;
61677;SDS011;47575;52.054;4.334;2022-08-07T10:41:06;2.85;;;1.00;;
61677;SDS011;47575;52.054;4.334;2022-08-07T10:43:41;2.83;;;0.93;;
61677;SDS011;47575;52.054;4.334;2022-08-07T10:46:22;2.72;;;0.80;;
61677;SDS011;47575;52.054;4.334;2022-08-07T10:48:54;2.88;;;0.98;;
61677;SDS011;47575;52.054;4.334;2022-08-07T10:51:27;2.15;;;0.70;;
61677;SDS011;47575;52.054;4.334;2022-08-07T10:54:05;2.47;;;0.95;;
61677;SDS011;47575;52.054;4.334;2022-08-07T10:56:39;2.38;;;0.77;;
61677;SDS011;47575;52.054;4.334;2022-08-07T10:59:18;2.63;;;1.00;;
61677;SDS011;47575;52.054;4.334;2022-08-07T11:01:55;2.97;;;1.10;;
61677;SDS011;47575;52.054;4.334;2022-08-07T11:04:32;3.33;;;1.25;;
61677;SDS011;47575;52.054;4.334;2022-08-07T11:07:13;3.40;;;1.25;;
61677;SDS011;47575;52.054;4.334;2022-08-07T11:09:51;4.22;;;1.60;;
61677;SDS011;47575;52.054;4.334;2022-08-07T11:12:26;5.15;;;1.90;;
61677;SDS011;47575;52.054;4.334;2022-08-07T11:15:01;4.40;;;1.80;;
61677;SDS011;47575;52.054;4.334;2022-08-07T11:17:35;4.30;;;1.67;;
61677;SDS011;47575;52.054;4.334;2022-08-07T11:20:10;5.50;;;2.05;;
61677;SDS011;47575;52.054;4.334;2022-08-07T11:22:47;4.50;;;1.45;;
61677;SDS011;47575;52.054;4.334;2022-08-07T11:25:22;6.20;;;1.98;;
61677;SDS011;47575;52.054;4.334;2022-08-07T11:27:56;4.40;;;1.73;;
61677;SDS011;47575;52.054;4.334;2022-08-07T11:30:33;3.30;;;1.60;;
61677;SDS011;47575;52.054;4.334;2022-08-07T11:33:10;4.93;;;1.83;;
61677;SDS011;47575;52.054;4.334;2022-08-07T11:35:52;5.70;;;2.00;;
61677;SDS011;47575;52.054;4.334;2022-08-07T11:38:26;5.30;;;1.80;;
61677;SDS011;47575;52.054;4.334;2022-08-07T11:41:02;5.60;;;1.80;;
61677;SDS011;47575;52.054;4.334;2022-08-07T11:43:36;4.90;;;1.83;;
61677;SDS011;47575;52.054;4.334;2022-08-07T11:46:12;6.65;;;1.85;;
61677;SDS011;47575;52.054;4.334;2022-08-07T11:48:50;5.05;;;1.90;;
61677;SDS011;47575;52.054;4.334;2022-08-07T11:51:33;6.63;;;2.13;;
61677;SDS011;47575;52.054;4.334;2022-08-07T11:54:15;4.82;;;1.98;;
61677;SDS011;47575;52.054;4.334;2022-08-07T11:57:02;4.15;;;1.90;;
61677;SDS011;47575;52.054;4.334;2022-08-07T11:59:51;6.43;;;2.00;;
61677;SDS011;47575;52.054;4.334;2022-08-07T12:02:31;6.72;;;2.05;;
61677;SDS011;47575;52.054;4.334;2022-08-07T12:05:10;5.70;;;1.90;;
61677;SDS011;47575;52.054;4.334;2022-08-07T12:07:47;9.23;;;2.20;;
61677;SDS011;47575;52.054;4.334;2022-08-07T12:10:21;6.63;;;1.80;;
61677;SDS011;47575;52.054;4.334;2022-08-07T12:12:56;7.70;;;2.28;;
61677;SDS011;47575;52.054;4.334;2022-08-07T12:15:29;5.75;;;1.80;;
61677;SDS011;47575;52.054;4.334;2022-08-07T12:18:00;4.82;;;2.00;;
61677;SDS011;47575;52.054;4.334;2022-08-07T12:20:34;4.30;;;2.00;;
61677;SDS011;47575;52.054;4.334;2022-08-07T12:23:14;5.32;;;2.00;;
61677;SDS011;47575;52.054;4.334;2022-08-07T12:26:02;4.78;;;1.98;;
61677;SDS011;47575;52.054;4.334;2022-08-07T12:28:35;6.18;;;1.85;;
61677;SDS011;47575;52.054;4.334;2022-08-07T12:31:10;6.78;;;1.80;;
61677;SDS011;47575;52.054;4.334;2022-08-07T12:33:43;4.80;;;1.70;;
61677;SDS011;47575;52.054;4.334;2022-08-07T12:36:13;6.78;;;1.95;;
61677;SDS011;47575;52.054;4.334;2022-08-07T12:38:41;5.25;;;1.90;;
61677;SDS011;47575;52.054;4.334;2022-08-07T12:41:11;6.70;;;1.88;;
61677;SDS011;47575;52.054;4.334;2022-08-07T12:43:40;5.78;;;1.95;;
61677;SDS011;47575;52.054;4.334;2022-08-07T12:46:13;4.07;;;2.03;;
61677;SDS011;47575;52.054;4.334;2022-08-07T12:48:51;3.83;;;1.60;;
61677;SDS011;47575;52.054;4.334;2022-08-07T12:51:25;5.03;;;1.70;;
61677;SDS011;47575;52.054;4.334;2022-08-07T12:53:57;6.63;;;2.10;;
61677;SDS011;47575;52.054;4.334;2022-08-07T12:56:32;7.38;;;2.15;;
61677;SDS011;47575;52.054;4.334;2022-08-07T12:59:03;4.32;;;1.83;;
61677;SDS011;47575;52.054;4.334;2022-08-07T13:01:41;5.30;;;2.08;;
61677;SDS011;47575;52.054;4.334;2022-08-07T13:04:25;4.38;;;1.90;;
61677;SDS011;47575;52.054;4.334;2022-08-07T13:10:03;5.30;;;2.00;;
61677;SDS011;47575;52.054;4.334;2022-08-07T13:12:44;4.82;;;1.80;;
61677;SDS011;47575;52.054;4.334;2022-08-07T13:15:25;4.85;;;1.90;;
61677;SDS011;47575;52.054;4.334;2022-08-07T13:20:56;4.18;;;1.90;;
61677;SDS011;47575;52.054;4.334;2022-08-07T13:23:30;5.10;;;2.00;;
61677;SDS011;47575;52.054;4.334;2022-08-07T13:26:04;4.03;;;1.75;;
61677;SDS011;47575;52.054;4.334;2022-08-07T13:28:38;4.90;;;1.70;;
61677;SDS011;47575;52.054;4.334;2022-08-07T13:31:12;4.75;;;1.70;;
61677;SDS011;47575;52.054;4.334;2022-08-07T13:33:46;6.43;;;1.70;;
61677;SDS011;47575;52.054;4.334;2022-08-07T13:36:18;9.90;;;2.55;;
61677;SDS011;47575;52.054;4.334;2022-08-07T13:38:50;8.63;;;1.95;;
61677;SDS011;47575;52.054;4.334;2022-08-07T13:41:29;3.88;;;1.80;;
61677;SDS011;47575;52.054;4.334;2022-08-07T13:44:01;6.85;;;1.80;;
61677;SDS011;47575;52.054;4.334;2022-08-07T13:46:34;6.13;;;1.70;;
61677;SDS011;47575;52.054;4.334;2022-08-07T13:49:04;5.32;;;1.98;;
61677;SDS011;47575;52.054;4.334;2022-08-07T13:51:33;3.75;;;1.70;;
61677;SDS011;47575;52.054;4.334;2022-08-07T13:54:02;6.53;;;2.20;;
61677;SDS011;47575;52.054;4.334;2022-08-07T13:56:33;5.30;;;2.00;;
61677;SDS011;47575;52.054;4.334;2022-08-07T13:59:03;5.80;;;1.90;;
61677;SDS011;47575;52.054;4.334;2022-08-07T14:01:37;5.75;;;2.10;;
61677;SDS011;47575;52.054;4.334;2022-08-07T14:04:12;4.95;;;1.70;;
61677;SDS011;47575;52.054;4.334;2022-08-07T14:06:42;6.05;;;2.28;;
61677;SDS011;47575;52.054;4.334;2022-08-07T14:09:14;6.78;;;2.20;;
61677;SDS011;47575;52.054;4.334;2022-08-07T14:11:46;7.93;;;2.17;;
61677;SDS011;47575;52.054;4.334;2022-08-07T14:14:18;4.85;;;1.98;;
61677;SDS011;47575;52.054;4.334;2022-08-07T14:16:54;5.00;;;2.25;;
61677;SDS011;47575;52.054;4.334;2022-08-07T14:19:28;5.67;;;2.17;;
61677;SDS011;47575;52.054;4.334;2022-08-07T14:22:00;6.63;;;2.38;;
61677;SDS011;47575;52.054;4.334;2022-08-07T14:24:31;8.13;;;2.22;;
61677;SDS011;47575;52.054;4.334;2022-08-07T14:27:01;5.63;;;2.42;;
61677;SDS011;47575;52.054;4.334;2022-08-07T14:29:32;5.97;;;2.20;;
61677;SDS011;47575;52.054;4.334;2022-08-07T14:32:08;4.43;;;2.25;;
61677;SDS011;47575;52.054;4.334;2022-08-07T14:34:38;5.97;;;2.20;;
61677;SDS011;47575;52.054;4.334;2022-08-07T14:37:09;7.28;;;2.20;;
61677;SDS011;47575;52.054;4.334;2022-08-07T14:39:39;6.40;;;2.10;;
61677;SDS011;47575;52.054;4.334;2022-08-07T14:42:09;7.45;;;2.50;;
61677;SDS011;47575;52.054;4.334;2022-08-07T14:44:39;6.05;;;2.50;;
61677;SDS011;47575;52.054;4.334;2022-08-07T14:47:14;5.60;;;2.13;;
61677;SDS011;47575;52.054;4.334;2022-08-07T14:49:43;6.40;;;2.35;;
61677;SDS011;47575;52.054;4.334;2022-08-07T14:52:11;6.70;;;2.38;;
61677;SDS011;47575;52.054;4.334;2022-08-07T14:54:39;6.00;;;2.20;;
61677;SDS011;47575;52.054;4.334;2022-08-07T14:57:09;8.13;;;2.55;;
61677;SDS011;47575;52.054;4.334;2022-08-07T14:59:38;5.82;;;2.00;;
61677;SDS011;47575;52.054;4.334;2022-08-07T15:02:09;6.97;;;2.15;;
61677;SDS011;47575;52.054;4.334;2022-08-07T15:04:40;7.07;;;2.35;;
61677;SDS011;47575;52.054;4.334;2022-08-07T15:07:09;5.57;;;2.13;;
61677;SDS011;47575;52.054;4.334;2022-08-07T15:09:42;6.97;;;2.40;;
61677;SDS011;47575;52.054;4.334;2022-08-07T15:12:14;5.15;;;2.33;;
61677;SDS011;47575;52.054;4.334;2022-08-07T15:14:46;6.78;;;3.33;;
61677;SDS011;47575;52.054;4.334;2022-08-07T15:17:18;7.35;;;2.92;;
61677;SDS011;47575;52.054;4.334;2022-08-07T15:19:49;7.50;;;2.97;;
61677;SDS011;47575;52.054;4.334;2022-08-07T15:22:18;5.95;;;3.25;;
61677;SDS011;47575;52.054;4.334;2022-08-07T15:24:48;8.27;;;3.90;;
61677;SDS011;47575;52.054;4.334;2022-08-07T15:27:19;8.38;;;2.80;;
61677;SDS011;47575;52.054;4.334;2022-08-07T15:29:49;6.80;;;2.50;;
61677;SDS011;47575;52.054;4.334;2022-08-07T15:32:18;6.18;;;2.22;;
61677;SDS011;47575;52.054;4.334;2022-08-07T15:34:47;6.70;;;2.30;;
61677;SDS011;47575;52.054;4.334;2022-08-07T15:37:19;6.28;;;3.17;;
61677;SDS011;47575;52.054;4.334;2022-08-07T15:39:50;5.80;;;2.40;;
61677;SDS011;47575;52.054;4.334;2022-08-07T15:42:36;6.85;;;2.33;;
61677;SDS011;47575;52.054;4.334;2022-08-07T15:45:24;6.47;;;2.70;;
61677;SDS011;47575;52.054;4.334;2022-08-07T15:47:56;5.80;;;2.75;;